createdAt,value
2018-06-23T00:01:24.731Z,10.00
2018-06-23T00:03:55.052Z,9.80
2018-06-23T00:06:25.478Z,9.80
2018-06-23T00:08:55.932Z,9.90
2018-06-23T00:11:26.268Z,9.90
2018-06-23T00:13:57.159Z,9.80
2018-06-23T00:16:27.858Z,9.70
2018-06-23T00:18:58.488Z,9.70
2018-06-23T00:21:28.932Z,9.70
2018-06-23T00:23:59.617Z,9.70
2018-06-23T00:26:30.040Z,9.70
2018-06-23T00:29:01.563Z,9.70
2018-06-23T00:31:32.299Z,9.70
2018-06-23T00:34:02.608Z,9.70
2018-06-23T00:36:32.880Z,9.60
2018-06-23T00:39:03.205Z,9.50
2018-06-23T00:41:33.755Z,9.10
2018-06-23T00:44:04.035Z,9.10
2018-06-23T00:46:34.375Z,9.00
2018-06-23T00:49:04.714Z,8.90
2018-06-23T00:51:35.131Z,8.70
2018-06-23T00:54:05.468Z,8.70
2018-06-23T00:56:35.690Z,8.60
2018-06-23T00:59:23.148Z,8.70
2018-06-23T01:01:53.839Z,8.40
2018-06-23T01:04:26.996Z,8.50
2018-06-23T01:06:57.203Z,8.50
2018-06-23T01:09:27.467Z,8.50
2018-06-23T01:11:57.659Z,8.60
2018-06-23T01:14:27.905Z,8.60
2018-06-23T01:16:58.231Z,8.50
2018-06-23T01:19:28.419Z,8.60
2018-06-23T01:21:58.672Z,8.70
2018-06-23T01:24:28.866Z,8.80
2018-06-23T01:26:59.146Z,8.90
2018-06-23T01:29:29.374Z,8.90
2018-06-23T01:31:59.622Z,8.90
2018-06-23T01:34:29.798Z,8.80
2018-06-23T01:37:00.036Z,8.90
2018-06-23T01:39:30.235Z,8.80
2018-06-23T01:42:00.451Z,8.80
2018-06-23T01:44:30.618Z,8.80
2018-06-23T01:47:00.901Z,9.00
2018-06-23T01:49:31.064Z,8.90
2018-06-23T01:52:01.352Z,9.00
2018-06-23T01:54:31.526Z,9.00
2018-06-23T01:57:01.838Z,9.00
2018-06-23T01:59:32.024Z,9.10
2018-06-23T02:02:02.390Z,9.10
2018-06-23T02:04:32.586Z,9.10
2018-06-23T02:07:02.831Z,9.10
2018-06-23T02:09:33.117Z,9.00
2018-06-23T02:12:03.078Z,9.00
2018-06-23T02:14:38.386Z,9.00
2018-06-23T02:17:13.914Z,9.00
2018-06-23T02:19:49.457Z,8.90
2018-06-23T02:22:24.995Z,8.70
2018-06-23T02:25:00.930Z,8.70
2018-06-23T02:27:36.649Z,8.70
2018-06-23T02:30:11.991Z,8.60
2018-06-23T02:32:44.428Z,8.50
2018-06-23T02:35:14.691Z,8.40
2018-06-23T02:37:44.920Z,8.40
2018-06-23T02:40:15.200Z,8.40
2018-06-23T02:42:45.457Z,8.50
2018-06-23T02:45:15.654Z,8.50
2018-06-23T02:47:45.925Z,8.30
2018-06-23T02:50:16.184Z,8.40
2018-06-23T02:52:46.474Z,8.40
2018-06-23T02:55:16.762Z,8.10
2018-06-23T02:57:47.333Z,8.30
2018-06-23T03:00:17.519Z,8.40
2018-06-23T03:02:47.735Z,8.40
2018-06-23T03:05:18.174Z,8.40
2018-06-23T03:07:48.442Z,8.40
2018-06-23T03:10:18.638Z,8.40
2018-06-23T03:12:48.876Z,8.20
2018-06-23T03:15:19.082Z,8.30
2018-06-23T03:17:49.318Z,8.30
2018-06-23T03:20:19.527Z,8.30
2018-06-23T03:22:49.889Z,8.20
2018-06-23T03:25:20.095Z,8.20
2018-06-23T03:27:50.407Z,8.20
2018-06-23T03:30:20.641Z,8.10
2018-06-23T03:32:50.890Z,8.20
2018-06-23T03:35:21.178Z,8.20
2018-06-23T03:37:51.427Z,8.20
2018-06-23T03:40:21.630Z,8.10
2018-06-23T03:42:51.840Z,8.10
2018-06-23T03:45:22.066Z,8.00
2018-06-23T03:47:52.475Z,8.10
2018-06-23T03:50:22.716Z,8.20
2018-06-23T03:52:52.923Z,8.20
2018-06-23T03:55:23.187Z,8.20
2018-06-23T03:57:53.412Z,8.30
2018-06-23T04:00:23.982Z,8.20
2018-06-23T04:02:54.282Z,8.20
2018-06-23T04:05:24.514Z,8.20
2018-06-23T04:07:54.738Z,8.20
2018-06-23T04:10:25.052Z,8.30
2018-06-23T04:12:55.474Z,8.30
2018-06-23T04:15:25.760Z,8.20
2018-06-23T04:17:56.291Z,8.30
2018-06-23T04:20:26.703Z,7.80
2018-06-23T04:22:57.016Z,8.50
2018-06-23T04:25:27.282Z,8.60
2018-06-23T04:27:57.471Z,8.50
2018-06-23T04:30:27.830Z,8.60
2018-06-23T04:32:58.036Z,8.70
2018-06-23T04:35:28.267Z,8.80
2018-06-23T04:37:58.482Z,9.00
2018-06-23T04:40:28.778Z,9.00
2018-06-23T04:42:58.978Z,9.10
2018-06-23T04:45:29.326Z,9.10
2018-06-23T04:47:59.655Z,9.30
2018-06-23T04:50:30.126Z,9.50
2018-06-23T04:53:00.366Z,9.60
2018-06-23T04:55:30.651Z,9.60
2018-06-23T04:58:00.927Z,9.60
2018-06-23T05:00:31.704Z,9.80
2018-06-23T05:03:01.903Z,10.00
2018-06-23T05:05:32.173Z,10.10
2018-06-23T05:08:02.338Z,10.10
2018-06-23T05:10:32.762Z,10.30
2018-06-23T05:13:02.995Z,10.50
2018-06-23T05:15:33.470Z,10.50
2018-06-23T05:18:03.715Z,10.50
2018-06-23T05:20:33.954Z,10.60
2018-06-23T05:23:04.199Z,10.80
2018-06-23T05:25:34.407Z,11.10
2018-06-23T05:28:04.617Z,11.30
2018-06-23T05:30:34.824Z,11.50
2018-06-23T05:33:05.263Z,11.70
2018-06-23T05:35:35.707Z,11.90
2018-06-23T05:38:06.603Z,12.00
2018-06-23T05:40:36.814Z,12.10
2018-06-23T05:43:07.035Z,12.20
2018-06-23T05:45:37.286Z,12.40
2018-06-23T05:48:07.703Z,12.30
2018-06-23T05:50:37.982Z,12.50
2018-06-23T05:53:08.506Z,12.70
2018-06-23T05:55:38.931Z,12.80
2018-06-23T05:58:09.134Z,12.80
2018-06-23T06:00:39.466Z,13.00
2018-06-23T06:03:09.675Z,13.20
2018-06-23T06:05:40.218Z,13.20
2018-06-23T06:08:10.443Z,13.50
2018-06-23T06:10:44.090Z,13.50
2018-06-23T06:13:14.312Z,13.80
2018-06-23T06:15:44.515Z,13.80
2018-06-23T06:18:14.767Z,14.00
2018-06-23T06:20:46.103Z,14.40
2018-06-23T06:23:16.345Z,14.20
2018-06-23T06:25:46.602Z,14.90
2018-06-23T06:28:16.842Z,15.20
2018-06-23T06:30:47.100Z,15.20
2018-06-23T06:33:17.312Z,15.10
2018-06-23T06:35:47.552Z,15.10
2018-06-23T06:38:17.752Z,15.20
2018-06-23T06:40:47.998Z,15.30
2018-06-23T06:43:18.159Z,15.50
2018-06-23T06:45:48.451Z,15.60
2018-06-23T06:48:18.780Z,15.80
2018-06-23T06:50:49.088Z,16.00
2018-06-23T06:53:19.295Z,16.00
2018-06-23T06:55:49.288Z,16.40
2018-06-23T06:58:19.380Z,16.40
2018-06-23T07:00:49.699Z,16.70
2018-06-23T07:03:19.926Z,16.80
2018-06-23T07:05:50.171Z,17.10
2018-06-23T07:08:20.462Z,17.00
2018-06-23T07:10:50.732Z,17.10
2018-06-23T07:13:20.978Z,17.00
2018-06-23T07:15:51.222Z,17.10
2018-06-23T07:18:21.438Z,17.20
2018-06-23T07:20:52.015Z,17.30
2018-06-23T07:23:22.624Z,17.50
2018-06-23T07:25:52.890Z,17.50
2018-06-23T07:28:23.180Z,17.60
2018-06-23T07:30:53.470Z,17.70
2018-06-23T07:33:24.019Z,17.80
2018-06-23T07:35:54.359Z,18.00
2018-06-23T07:38:24.899Z,18.00
2018-06-23T07:40:55.193Z,18.10
2018-06-23T07:43:25.511Z,18.30
2018-06-23T07:45:55.911Z,18.50
2018-06-23T07:48:26.210Z,18.40
2018-06-23T07:50:56.250Z,17.70
2018-06-23T07:53:27.042Z,17.90
2018-06-23T07:55:59.248Z,18.30
2018-06-23T07:58:29.571Z,17.80
2018-06-23T08:00:59.823Z,17.50
2018-06-23T08:03:30.041Z,17.70
2018-06-23T08:06:00.374Z,17.70
2018-06-23T08:08:30.712Z,17.90
2018-06-23T08:11:01.047Z,18.00
2018-06-23T08:13:31.270Z,18.20
2018-06-23T08:16:01.591Z,18.10
2018-06-23T08:18:31.902Z,18.00
2018-06-23T08:21:02.195Z,18.40
2018-06-23T08:23:32.923Z,18.70
2018-06-23T08:26:03.185Z,18.70
2018-06-23T08:28:35.390Z,18.80
2018-06-23T08:31:06.444Z,18.90
2018-06-23T08:33:37.278Z,18.90
2018-06-23T08:36:07.700Z,18.60
2018-06-23T08:38:37.951Z,18.20
2018-06-23T08:41:08.221Z,18.40
2018-06-23T08:43:38.581Z,18.50
2018-06-23T08:46:08.820Z,18.70
2018-06-23T08:48:39.197Z,18.80
2018-06-23T08:51:09.515Z,18.80
2018-06-23T08:53:39.744Z,19.40
2018-06-23T08:56:10.052Z,19.00
2018-06-23T08:58:40.515Z,18.90
2018-06-23T09:01:10.766Z,19.30
2018-06-23T09:03:42.127Z,19.40
2018-06-23T09:06:12.548Z,19.50
2018-06-23T09:08:43.683Z,20.00
2018-06-23T09:11:14.990Z,19.80
2018-06-23T09:13:47.779Z,19.30
2018-06-23T09:16:18.566Z,19.30
2018-06-23T09:18:49.386Z,19.40
2018-06-23T09:21:19.643Z,19.50
2018-06-23T09:23:50.189Z,19.00
2018-06-23T09:26:20.443Z,18.50
2018-06-23T09:28:52.254Z,18.20
2018-06-23T09:31:23.828Z,18.40
2018-06-23T09:33:54.323Z,18.20
2018-06-23T09:36:24.893Z,18.40
2018-06-23T09:38:55.219Z,18.30
2018-06-23T09:41:25.500Z,18.60
2018-06-23T09:43:55.831Z,19.10
2018-06-23T09:46:26.187Z,19.60
2018-06-23T09:48:56.695Z,19.50
2018-06-23T09:51:27.399Z,19.00
2018-06-23T09:53:57.664Z,19.10
2018-06-23T09:56:28.067Z,18.80
2018-06-23T09:58:59.742Z,18.40
2018-06-23T10:01:30.118Z,18.00
2018-06-23T10:04:00.304Z,18.10
2018-06-23T10:06:30.701Z,17.90
2018-06-23T10:09:00.879Z,18.10
2018-06-23T10:11:31.340Z,18.10
2018-06-23T10:14:01.535Z,18.20
2018-06-23T10:16:31.888Z,18.20
2018-06-23T10:19:02.911Z,18.60
2018-06-23T10:21:33.654Z,18.60
2018-06-23T10:24:04.325Z,18.30
2018-06-23T10:26:34.675Z,17.80
2018-06-23T10:29:04.958Z,17.50
2018-06-23T10:31:35.207Z,18.10
2018-06-23T10:34:05.744Z,18.20
2018-06-23T10:36:36.024Z,18.10
2018-06-23T10:39:10.119Z,18.30
2018-06-23T10:41:40.965Z,18.80
2018-06-23T10:44:11.148Z,19.20
2018-06-23T10:46:41.783Z,19.30
2018-06-23T10:49:12.052Z,19.40
2018-06-23T10:51:42.555Z,19.50
2018-06-23T10:54:12.999Z,19.70
2018-06-23T10:56:44.771Z,19.60
2018-06-23T10:59:15.563Z,19.90
2018-06-23T11:01:48.884Z,19.70
2018-06-23T11:04:19.690Z,19.80
2018-06-23T11:06:50.002Z,19.80
2018-06-23T11:09:20.263Z,19.80
2018-06-23T11:11:50.502Z,19.90
2018-06-23T11:14:20.739Z,19.60
2018-06-23T11:16:50.998Z,19.80
2018-06-23T11:19:21.387Z,20.60
2018-06-23T11:21:52.915Z,20.70
2018-06-23T11:24:23.353Z,20.80
2018-06-23T11:26:53.663Z,20.80
2018-06-23T11:29:24.210Z,20.60
2018-06-23T11:31:54.790Z,20.70
2018-06-23T11:34:25.732Z,20.60
2018-06-23T11:36:56.916Z,21.30
2018-06-23T11:39:28.052Z,21.30
2018-06-23T11:41:58.432Z,21.20
2018-06-23T11:44:28.968Z,21.30
2018-06-23T11:46:59.268Z,21.40
2018-06-23T11:49:31.121Z,21.50
2018-06-23T11:52:01.512Z,21.30
2018-06-23T11:54:32.258Z,21.10
2018-06-23T11:57:02.769Z,21.20
2018-06-23T11:59:35.390Z,21.60
2018-06-23T12:02:06.748Z,22.00
2018-06-23T12:04:37.606Z,22.30
2018-06-23T12:07:08.143Z,22.30
2018-06-23T12:09:39.942Z,21.80
2018-06-23T12:12:10.284Z,21.50
2018-06-23T12:14:42.203Z,21.40
2018-06-23T12:17:12.677Z,21.90
2018-06-23T12:19:45.051Z,22.20
2018-06-23T12:22:16.494Z,22.30
2018-06-23T12:24:48.518Z,21.70
2018-06-23T12:27:22.324Z,21.80
2018-06-23T12:29:53.482Z,22.50
2018-06-23T12:32:27.850Z,22.40
2018-06-23T12:34:58.513Z,22.80
2018-06-23T12:37:30.912Z,22.60
2018-06-23T12:40:01.607Z,22.80
2018-06-23T12:42:35.871Z,22.70
2018-06-23T12:45:07.015Z,22.60
2018-06-23T12:47:40.152Z,23.60
2018-06-23T12:50:14.209Z,23.40
2018-06-23T12:52:45.226Z,23.30
2018-06-23T12:55:16.419Z,23.50
2018-06-23T12:57:49.418Z,23.20
2018-06-23T13:00:20.533Z,23.30
2018-06-23T13:02:52.260Z,22.70
2018-06-23T13:05:22.646Z,22.30
2018-06-23T13:07:53.038Z,23.30
2018-06-23T13:10:27.314Z,24.50
2018-06-23T13:12:58.844Z,24.70
2018-06-23T13:15:29.754Z,24.80
2018-06-23T13:18:02.616Z,24.50
2018-06-23T13:20:36.055Z,24.20
2018-06-23T13:23:07.049Z,23.60
2018-06-23T13:25:37.368Z,24.00
2018-06-23T13:28:07.803Z,24.00
2018-06-23T13:30:38.319Z,23.40
2018-06-23T13:33:10.997Z,23.20
2018-06-23T13:35:42.127Z,23.50
2018-06-23T13:38:12.761Z,24.90
2018-06-23T13:40:43.174Z,25.40
2018-06-23T13:43:13.618Z,26.10
2018-06-23T13:45:43.900Z,25.00
2018-06-23T13:48:14.183Z,24.80
2018-06-23T13:50:47.468Z,24.50
2018-06-23T13:53:17.717Z,24.20
2018-06-23T13:55:47.971Z,23.70
2018-06-23T13:58:18.309Z,24.20
2018-06-23T14:00:48.601Z,25.00
2018-06-23T14:03:18.875Z,25.20
2018-06-23T14:05:49.106Z,24.40
2018-06-23T14:08:19.343Z,24.20
2018-06-23T14:10:49.577Z,23.60
2018-06-23T14:13:20.251Z,23.00
2018-06-23T14:15:50.536Z,23.30
2018-06-23T14:18:20.801Z,23.10
2018-06-23T14:20:51.007Z,23.00
2018-06-23T14:23:21.287Z,22.90
2018-06-23T14:25:51.518Z,23.10
2018-06-23T14:28:21.813Z,23.60
2018-06-23T14:30:52.067Z,23.80
2018-06-23T14:33:22.573Z,23.50
2018-06-23T14:35:52.810Z,23.30
2018-06-23T14:38:23.100Z,23.50
2018-06-23T14:40:53.555Z,23.60
2018-06-23T14:43:23.930Z,23.00
2018-06-23T14:45:54.436Z,22.50
2018-06-23T14:48:25.315Z,23.30
2018-06-23T14:50:58.584Z,24.10
2018-06-23T14:53:29.072Z,24.10
2018-06-23T14:55:59.357Z,23.40
2018-06-23T14:58:29.743Z,24.00
2018-06-23T15:01:00.045Z,23.70
2018-06-23T15:03:30.284Z,23.40
2018-06-23T15:06:04.640Z,23.40
2018-06-23T15:08:51.734Z,23.40
2018-06-23T15:11:39.028Z,23.70
2018-06-23T15:14:09.641Z,24.20
2018-06-23T15:16:39.950Z,24.40
2018-06-23T15:19:10.606Z,25.10
2018-06-23T15:21:40.999Z,24.90
2018-06-23T15:24:11.765Z,25.20
2018-06-23T15:26:42.184Z,25.60
2018-06-23T15:29:12.812Z,24.70
2018-06-23T15:31:43.605Z,23.80
2018-06-23T15:34:13.873Z,22.60
2018-06-23T15:36:44.094Z,22.70
2018-06-23T15:39:15.071Z,22.60
2018-06-23T15:41:45.843Z,22.10
2018-06-23T15:44:26.256Z,22.00
2018-06-23T15:46:59.978Z,21.60
2018-06-23T15:49:30.650Z,21.20
2018-06-23T15:52:01.165Z,21.30
2018-06-23T15:54:31.691Z,21.10
2018-06-23T15:57:02.429Z,21.20
2018-06-23T15:59:32.780Z,21.50
2018-06-23T16:02:03.133Z,21.30
2018-06-23T16:04:34.097Z,21.40
2018-06-23T16:07:04.895Z,21.40
2018-06-23T16:09:35.482Z,21.40
2018-06-23T16:12:05.756Z,21.60
2018-06-23T16:14:36.091Z,21.50
2018-06-23T16:17:06.387Z,21.50
2018-06-23T16:19:36.822Z,21.40
2018-06-23T16:22:07.588Z,21.40
2018-06-23T16:24:37.875Z,21.10
2018-06-23T16:27:08.611Z,21.20
2018-06-23T16:29:39.087Z,21.20
2018-06-23T16:32:09.414Z,21.10
2018-06-23T16:34:39.972Z,21.10
2018-06-23T16:37:10.350Z,21.20
2018-06-23T16:39:42.213Z,21.40
2018-06-23T16:42:12.922Z,21.30
2018-06-23T16:44:43.236Z,21.00
2018-06-23T16:47:13.527Z,21.10
2018-06-23T16:49:44.085Z,21.00
2018-06-23T16:52:14.858Z,20.90
2018-06-23T16:54:46.014Z,21.00
2018-06-23T16:57:16.643Z,20.90
2018-06-23T16:59:48.029Z,20.90
2018-06-23T17:02:18.327Z,20.70
2018-06-23T17:04:48.621Z,20.50
2018-06-23T17:07:18.879Z,20.50
2018-06-23T17:09:49.119Z,20.60
2018-06-23T17:12:19.623Z,20.60
2018-06-23T17:14:49.997Z,20.50
2018-06-23T17:17:20.243Z,20.40
2018-06-23T17:19:50.495Z,20.30
2018-06-23T17:22:21.973Z,20.30
2018-06-23T17:24:52.231Z,20.30
2018-06-23T17:27:22.491Z,20.40
2018-06-23T17:29:52.997Z,20.30
2018-06-23T17:32:24.026Z,20.40
2018-06-23T17:34:54.891Z,20.40
2018-06-23T17:37:25.204Z,20.30
2018-06-23T17:39:55.903Z,20.10
2018-06-23T17:42:26.619Z,20.10
2018-06-23T17:44:58.059Z,20.30
2018-06-23T17:47:28.289Z,20.10
2018-06-23T17:49:58.763Z,19.90
2018-06-23T17:52:29.264Z,19.90
2018-06-23T17:54:59.996Z,19.90
2018-06-23T17:57:30.570Z,20.00
2018-06-23T18:00:00.522Z,20.00
2018-06-23T18:02:30.906Z,19.90
2018-06-23T18:05:02.794Z,20.00
2018-06-23T18:07:34.318Z,19.80
2018-06-23T18:10:04.782Z,19.60
2018-06-23T18:12:35.792Z,19.60
2018-06-23T18:15:06.691Z,19.70
2018-06-23T18:17:36.911Z,19.50
2018-06-23T18:20:07.642Z,19.70
2018-06-23T18:22:38.150Z,19.70
2018-06-23T18:25:08.370Z,19.50
2018-06-23T18:27:38.683Z,19.30
2018-06-23T18:30:08.906Z,18.90
2018-06-23T18:32:39.158Z,19.30
2018-06-23T18:35:09.411Z,19.20
2018-06-23T18:37:39.747Z,19.00
2018-06-23T18:40:10.002Z,18.90
2018-06-23T18:42:40.413Z,19.00
2018-06-23T18:45:10.874Z,18.80
2018-06-23T18:47:41.457Z,18.90
2018-06-23T18:50:13.679Z,18.80
2018-06-23T18:52:44.138Z,18.90
2018-06-23T18:55:15.734Z,18.80
2018-06-23T18:57:46.812Z,18.80
2018-06-23T19:00:17.459Z,18.70
2018-06-23T19:02:48.574Z,18.70
2018-06-23T19:05:18.932Z,18.70
2018-06-23T19:07:49.151Z,18.80
2018-06-23T19:10:19.399Z,18.70
2018-06-23T19:12:49.671Z,18.60
2018-06-23T19:15:20.043Z,18.50
2018-06-23T19:17:50.237Z,18.50
2018-06-23T19:20:20.670Z,18.40
2018-06-23T19:22:50.876Z,18.40
2018-06-23T19:25:21.204Z,18.50
2018-06-23T19:27:51.514Z,18.50
2018-06-23T19:30:21.898Z,18.40
2018-06-23T19:32:53.150Z,18.30
2018-06-23T19:35:23.922Z,18.00
2018-06-23T19:37:54.122Z,18.10
2018-06-23T19:40:25.119Z,18.10
2018-06-23T19:42:55.380Z,18.00
2018-06-23T19:45:25.707Z,18.10
2018-06-23T19:47:55.949Z,17.90
2018-06-23T19:50:28.319Z,18.00
2018-06-23T19:52:58.612Z,17.90
2018-06-23T19:55:29.445Z,17.90
2018-06-23T19:58:00.540Z,17.70
2018-06-23T20:00:31.823Z,17.60
2018-06-23T20:03:03.140Z,17.60
2018-06-23T20:05:36.204Z,17.40
2018-06-23T20:08:06.587Z,17.40
2018-06-23T20:10:39.286Z,17.50
2018-06-23T20:13:09.928Z,17.40
2018-06-23T20:15:40.755Z,17.10
2018-06-23T20:18:12.977Z,17.10
2018-06-23T20:20:43.684Z,17.30
2018-06-23T20:23:14.443Z,17.10
2018-06-23T20:25:44.818Z,17.10
2018-06-23T20:28:15.241Z,17.10
2018-06-23T20:30:45.595Z,17.20
2018-06-23T20:33:16.430Z,17.10
2018-06-23T20:35:48.157Z,17.00
2018-06-23T20:38:18.609Z,16.70
2018-06-23T20:40:48.859Z,16.40
2018-06-23T20:43:19.143Z,16.50
2018-06-23T20:45:49.463Z,16.50
2018-06-23T20:48:19.990Z,16.50
2018-06-23T20:50:50.244Z,16.50
2018-06-23T20:53:20.719Z,16.60
2018-06-23T20:55:51.288Z,16.70
2018-06-23T20:58:21.587Z,16.70
2018-06-23T21:00:52.274Z,16.60
2018-06-23T21:03:23.159Z,16.50
2018-06-23T21:05:53.578Z,16.30
2018-06-23T21:08:24.059Z,16.10
2018-06-23T21:10:54.398Z,15.90
2018-06-23T21:13:24.720Z,15.90
2018-06-23T21:16:13.432Z,15.80
2018-06-23T21:18:44.026Z,15.50
2018-06-23T21:21:18.849Z,15.60
2018-06-23T21:23:49.287Z,15.50
2018-06-23T21:26:19.647Z,15.40
2018-06-23T21:28:50.977Z,15.30
2018-06-23T21:31:22.622Z,15.40
2018-06-23T21:33:53.147Z,15.30
2018-06-23T21:36:23.762Z,15.10
2018-06-23T21:38:54.203Z,15.30
2018-06-23T21:41:25.174Z,14.60
2018-06-23T21:43:58.261Z,15.10
2018-06-23T21:46:29.024Z,15.00
2018-06-23T21:49:00.590Z,15.10
2018-06-23T21:51:33.401Z,15.20
2018-06-23T21:54:11.425Z,15.20
2018-06-23T21:56:42.085Z,15.40
2018-06-23T21:59:12.644Z,15.30
2018-06-23T22:01:43.967Z,15.30
2018-06-23T22:04:14.291Z,15.10
2018-06-23T22:06:44.778Z,15.10
2018-06-23T22:09:15.171Z,15.10
2018-06-23T22:11:45.546Z,15.10
2018-06-23T22:14:15.861Z,15.10
2018-06-23T22:16:46.483Z,15.10
2018-06-23T22:19:16.851Z,15.10
2018-06-23T22:21:47.066Z,14.90
2018-06-23T22:24:17.516Z,14.50
2018-06-23T22:26:49.119Z,14.60
2018-06-23T22:29:23.822Z,14.50
2018-06-23T22:31:54.338Z,14.50
2018-06-23T22:34:24.805Z,14.50
2018-06-23T22:36:55.182Z,14.50
2018-06-23T22:39:25.906Z,14.40
2018-06-23T22:41:56.512Z,14.30
2018-06-23T22:44:26.753Z,14.40
2018-06-23T22:46:56.858Z,14.50
2018-06-23T22:49:28.488Z,14.70
2018-06-23T22:51:58.783Z,14.50
2018-06-23T22:54:29.010Z,14.40
2018-06-23T22:57:01.992Z,14.60
2018-06-23T22:59:34.170Z,14.60
2018-06-23T23:02:04.418Z,14.40
2018-06-23T23:04:34.912Z,14.50
2018-06-23T23:07:05.952Z,14.50
2018-06-23T23:09:36.788Z,14.70
2018-06-23T23:12:08.231Z,14.70
2018-06-23T23:14:40.458Z,14.80
2018-06-23T23:17:10.934Z,14.70
2018-06-23T23:19:41.432Z,14.60
2018-06-23T23:22:12.024Z,14.50
2018-06-23T23:24:44.031Z,14.30
2018-06-23T23:27:14.401Z,14.40
2018-06-23T23:29:44.790Z,14.50
2018-06-23T23:32:17.209Z,14.60
2018-06-23T23:34:49.094Z,14.70
2018-06-23T23:37:22.299Z,14.80
2018-06-23T23:39:53.422Z,14.70
2018-06-23T23:42:25.845Z,14.60
2018-06-23T23:44:56.494Z,14.70
2018-06-23T23:47:27.782Z,14.00
2018-06-23T23:50:01.454Z,14.60
2018-06-23T23:52:32.514Z,14.60
2018-06-23T23:55:02.794Z,14.40
2018-06-23T23:57:35.690Z,14.20
